createdAt,value
2022-11-26T00:01:22.813Z,8.63
2022-11-26T00:03:49.776Z,8.32
2022-11-26T00:06:47.776Z,7.45
2022-11-26T00:09:19.315Z,9.45
2022-11-26T00:11:46.229Z,8.77
2022-11-26T00:14:16.809Z,8.77
2022-11-26T00:16:44.812Z,8.35
2022-11-26T00:19:11.844Z,8.02
2022-11-26T00:21:41.206Z,8.07
2022-11-26T00:24:27.228Z,7.38
2022-11-26T00:26:56.232Z,7.10
2022-11-26T00:29:23.222Z,6.70
2022-11-26T00:31:50.139Z,6.85
2022-11-26T00:34:17.044Z,6.95
2022-11-26T00:36:44.938Z,7.10
2022-11-26T00:39:17.073Z,5.97
2022-11-26T00:41:48.790Z,7.53
2022-11-26T00:44:25.657Z,7.60
2022-11-26T00:46:52.907Z,7.18
2022-11-26T00:49:20.928Z,6.90
2022-11-26T00:51:48.174Z,7.20
2022-11-26T00:54:17.994Z,8.13
2022-11-26T00:56:45.767Z,8.15
2022-11-26T00:59:14.926Z,7.55
2022-11-26T01:01:42.030Z,8.40
2022-11-26T01:04:09.371Z,8.15
2022-11-26T01:06:40.331Z,8.65
2022-11-26T01:09:12.883Z,8.57
2022-11-26T01:11:39.804Z,8.75
2022-11-26T01:14:07.196Z,8.25
2022-11-26T01:16:39.390Z,8.32
2022-11-26T01:19:06.367Z,8.38
2022-11-26T01:21:33.559Z,8.25
2022-11-26T01:24:00.445Z,9.40
2022-11-26T01:26:32.826Z,9.10
2022-11-26T01:28:59.732Z,8.55
2022-11-26T01:31:29.158Z,8.15
2022-11-26T01:33:57.166Z,7.95
2022-11-26T01:36:26.774Z,8.57
2022-11-26T01:39:02.932Z,9.05
2022-11-26T01:41:47.451Z,7.82
2022-11-26T01:44:24.012Z,8.07
2022-11-26T01:46:55.106Z,7.60
2022-11-26T01:49:29.382Z,8.35
2022-11-26T01:52:24.476Z,8.43
2022-11-26T01:54:53.521Z,8.63
2022-11-26T01:57:25.206Z,8.48
2022-11-26T01:59:55.169Z,8.57
2022-11-26T02:02:25.437Z,8.15
2022-11-26T02:05:07.736Z,8.32
2022-11-26T02:07:36.297Z,7.93
2022-11-26T02:10:03.986Z,8.65
2022-11-26T02:12:31.013Z,7.93
2022-11-26T02:14:57.956Z,7.80
2022-11-26T02:17:24.805Z,8.05
2022-11-26T02:20:00.420Z,8.38
2022-11-26T02:22:57.017Z,7.63
2022-11-26T02:25:23.800Z,7.82
2022-11-26T02:28:05.552Z,8.27
2022-11-26T02:30:37.992Z,8.15
2022-11-26T02:33:11.800Z,7.38
2022-11-26T02:35:38.600Z,8.07
2022-11-26T02:38:13.733Z,7.68
2022-11-26T02:40:40.611Z,8.73
2022-11-26T02:43:07.432Z,8.10
2022-11-26T02:45:41.095Z,6.82
2022-11-26T02:48:13.589Z,7.15
2022-11-26T02:50:48.097Z,8.00
2022-11-26T02:53:17.733Z,8.20
2022-11-26T02:55:49.886Z,7.88
2022-11-26T02:58:18.902Z,8.55
2022-11-26T03:00:48.498Z,8.32
2022-11-26T03:03:30.234Z,7.93
2022-11-26T03:06:02.102Z,6.95
2022-11-26T03:08:30.725Z,8.20
2022-11-26T03:10:57.916Z,7.55
2022-11-26T03:13:24.949Z,8.63
2022-11-26T03:15:52.117Z,8.70
2022-11-26T03:18:19.134Z,8.23
2022-11-26T03:20:45.985Z,8.30
2022-11-26T03:23:12.813Z,7.85
2022-11-26T03:25:39.988Z,8.07
2022-11-26T03:28:07.177Z,7.95
2022-11-26T03:30:34.051Z,8.88
2022-11-26T03:33:00.880Z,8.10
2022-11-26T03:35:27.788Z,8.25
2022-11-26T03:37:54.795Z,8.48
2022-11-26T03:40:21.720Z,8.48
2022-11-26T03:42:48.542Z,8.50
2022-11-26T03:45:15.434Z,8.07
2022-11-26T03:47:42.270Z,8.60
2022-11-26T03:50:09.573Z,8.27
2022-11-26T03:52:36.624Z,9.13
2022-11-26T03:55:03.581Z,8.98
2022-11-26T03:57:30.451Z,8.18
2022-11-26T03:59:57.376Z,9.00
2022-11-26T04:02:24.298Z,7.90
2022-11-26T04:04:51.340Z,8.07
2022-11-26T04:07:18.442Z,7.95
2022-11-26T04:09:45.343Z,8.23
2022-11-26T04:12:12.188Z,7.85
2022-11-26T04:14:39.250Z,8.13
2022-11-26T04:17:06.427Z,8.35
2022-11-26T04:19:33.265Z,8.65
2022-11-26T04:22:00.134Z,8.13
2022-11-26T04:24:27.117Z,8.98
2022-11-26T04:26:54.087Z,7.82
2022-11-26T04:29:21.052Z,9.25
2022-11-26T04:31:48.037Z,8.00
2022-11-26T04:34:14.936Z,8.63
2022-11-26T04:36:41.862Z,7.93
2022-11-26T04:39:08.727Z,8.43
2022-11-26T04:41:35.561Z,9.73
2022-11-26T04:44:02.440Z,8.55
2022-11-26T04:46:29.337Z,8.45
2022-11-26T04:48:56.240Z,8.32
2022-11-26T04:51:23.100Z,8.40
2022-11-26T04:53:51.407Z,9.25
2022-11-26T04:56:21.540Z,9.43
2022-11-26T04:58:48.468Z,8.93
2022-11-26T05:01:15.461Z,9.40
2022-11-26T05:03:42.887Z,9.95
2022-11-26T05:06:10.903Z,8.70
2022-11-26T05:08:37.833Z,8.90
2022-11-26T05:11:05.095Z,9.27
2022-11-26T05:13:32.066Z,9.13
2022-11-26T05:15:59.124Z,8.27
2022-11-26T05:18:25.981Z,8.88
2022-11-26T05:20:52.809Z,8.60
2022-11-26T05:23:19.706Z,8.68
2022-11-26T05:25:47.928Z,9.27
2022-11-26T05:28:14.925Z,9.20
2022-11-26T05:30:42.071Z,8.00
2022-11-26T05:33:08.967Z,9.25
2022-11-26T05:35:37.625Z,8.85
2022-11-26T05:38:04.587Z,8.70
2022-11-26T05:40:31.544Z,9.73
2022-11-26T05:42:58.434Z,8.98
2022-11-26T05:45:25.330Z,9.93
2022-11-26T05:47:52.259Z,10.82
2022-11-26T05:50:19.257Z,9.43
2022-11-26T05:52:46.176Z,9.38
2022-11-26T05:55:13.165Z,8.52
2022-11-26T05:57:40.113Z,8.95
2022-11-26T06:00:07.728Z,8.32
2022-11-26T06:02:39.377Z,9.50
2022-11-26T06:05:07.013Z,9.38
2022-11-26T06:07:33.993Z,9.13
2022-11-26T06:10:01.097Z,9.38
2022-11-26T06:12:28.329Z,8.60
2022-11-26T06:14:55.190Z,8.60
2022-11-26T06:17:22.186Z,8.32
2022-11-26T06:19:49.179Z,8.48
2022-11-26T06:22:16.059Z,8.00
2022-11-26T06:24:42.979Z,8.00
2022-11-26T06:27:10.438Z,8.27
2022-11-26T06:29:37.313Z,7.18
2022-11-26T06:32:04.557Z,6.88
2022-11-26T06:34:31.439Z,7.80
2022-11-26T06:36:58.297Z,8.02
2022-11-26T06:39:25.236Z,7.82
2022-11-26T06:41:52.144Z,7.57
2022-11-26T06:44:19.148Z,8.20
2022-11-26T06:46:46.107Z,7.97
2022-11-26T06:49:13.010Z,8.63
2022-11-26T06:51:40.022Z,8.70
2022-11-26T06:54:06.868Z,9.13
2022-11-26T06:56:35.794Z,8.05
2022-11-26T06:59:02.850Z,7.80
2022-11-26T07:01:30.074Z,8.52
2022-11-26T07:03:57.026Z,8.75
2022-11-26T07:06:26.674Z,8.48
2022-11-26T07:08:54.986Z,9.57
2022-11-26T07:11:22.546Z,8.20
2022-11-26T07:13:49.629Z,8.85
2022-11-26T07:16:16.880Z,7.95
2022-11-26T07:18:47.542Z,8.05
2022-11-26T07:21:14.464Z,8.65
2022-11-26T07:23:42.077Z,7.50
2022-11-26T07:26:10.810Z,9.07
2022-11-26T07:28:38.056Z,9.13
2022-11-26T07:31:16.172Z,8.15
2022-11-26T07:33:44.062Z,8.38
2022-11-26T07:36:22.254Z,7.45
2022-11-26T07:38:49.825Z,7.88
2022-11-26T07:41:20.084Z,7.95
2022-11-26T07:43:47.306Z,7.88
2022-11-26T07:46:17.288Z,7.45
2022-11-26T07:48:44.674Z,7.93
2022-11-26T07:51:23.711Z,7.25
2022-11-26T07:53:51.552Z,6.72
2022-11-26T07:56:19.482Z,6.05
2022-11-26T07:58:46.834Z,6.57
2022-11-26T08:01:19.476Z,6.30
2022-11-26T08:03:48.709Z,5.90
2022-11-26T08:06:18.356Z,6.70
2022-11-26T08:08:45.268Z,6.78
2022-11-26T08:11:18.030Z,6.35
2022-11-26T08:13:45.963Z,5.75
2022-11-26T08:16:13.881Z,6.00
2022-11-26T08:18:40.942Z,6.03
2022-11-26T08:21:08.195Z,6.03
2022-11-26T08:23:35.560Z,6.85
2022-11-26T08:26:23.796Z,6.30
2022-11-26T08:28:52.510Z,6.97
2022-11-26T08:31:19.822Z,6.68
2022-11-26T08:33:46.818Z,7.30
2022-11-26T08:36:13.821Z,7.45
2022-11-26T08:38:40.869Z,7.13
2022-11-26T08:41:11.357Z,6.82
2022-11-26T08:44:05.241Z,6.63
2022-11-26T08:46:26.240Z,7.35
2022-11-26T08:48:56.596Z,6.45
2022-11-26T08:51:24.435Z,6.88
2022-11-26T08:53:51.366Z,7.75
2022-11-26T08:56:18.288Z,7.40
2022-11-26T08:58:45.710Z,7.68
2022-11-26T09:01:14.737Z,6.80
2022-11-26T09:03:41.934Z,7.10
2022-11-26T09:06:09.924Z,6.60
2022-11-26T09:09:06.277Z,6.90
2022-11-26T09:11:36.043Z,7.03
2022-11-26T09:14:03.718Z,7.20
2022-11-26T09:16:31.285Z,7.10
2022-11-26T09:19:01.144Z,8.00
2022-11-26T09:21:28.065Z,6.68
2022-11-26T09:23:55.380Z,7.45
2022-11-26T09:26:22.871Z,7.35
2022-11-26T09:28:49.746Z,7.47
2022-11-26T09:31:17.856Z,8.30
2022-11-26T09:33:45.225Z,6.93
2022-11-26T09:36:14.812Z,7.10
2022-11-26T09:38:42.286Z,5.88
2022-11-26T09:41:24.030Z,7.35
2022-11-26T09:44:14.276Z,8.10
2022-11-26T09:47:24.086Z,6.57
2022-11-26T09:50:19.457Z,5.85
2022-11-26T09:52:46.312Z,6.43
2022-11-26T09:55:18.633Z,6.25
2022-11-26T09:58:10.877Z,6.38
2022-11-26T10:00:46.694Z,5.88
2022-11-26T10:03:23.199Z,6.25
2022-11-26T10:05:59.073Z,5.50
2022-11-26T10:08:30.218Z,5.70
2022-11-26T10:11:08.941Z,5.30
2022-11-26T10:13:57.445Z,6.28
2022-11-26T10:16:29.679Z,5.88
2022-11-26T10:19:05.411Z,5.88
2022-11-26T10:24:29.525Z,6.15
2022-11-26T10:26:59.030Z,6.20
2022-11-26T10:29:39.405Z,6.25
2022-11-26T10:32:39.899Z,6.45
2022-11-26T10:35:07.432Z,6.75
2022-11-26T10:37:34.593Z,6.10
2022-11-26T10:40:07.515Z,5.78
2022-11-26T10:42:43.660Z,5.90
2022-11-26T10:45:21.003Z,6.07
2022-11-26T10:47:48.051Z,6.50
2022-11-26T10:50:46.519Z,6.20
2022-11-26T10:53:07.077Z,5.88
2022-11-26T10:55:43.682Z,5.18
2022-11-26T10:58:24.273Z,5.65
2022-11-26T11:00:51.269Z,5.53
2022-11-26T11:03:33.152Z,5.85
2022-11-26T11:06:21.394Z,5.72
2022-11-26T11:08:50.378Z,5.15
2022-11-26T11:11:28.711Z,4.35
2022-11-26T11:13:56.869Z,5.38
2022-11-26T11:16:29.831Z,5.00
2022-11-26T11:18:59.767Z,5.57
2022-11-26T11:21:34.498Z,4.82
2022-11-26T11:24:16.650Z,5.82
2022-11-26T11:26:46.422Z,4.45
2022-11-26T11:29:37.631Z,4.47
2022-11-26T11:32:37.638Z,5.30
2022-11-26T11:35:26.019Z,4.93
2022-11-26T11:37:54.959Z,5.25
2022-11-26T11:40:29.140Z,5.45
2022-11-26T11:43:05.212Z,4.57
2022-11-26T11:45:41.896Z,4.28
2022-11-26T11:48:29.851Z,4.03
2022-11-26T11:51:11.959Z,4.38
2022-11-26T11:54:29.546Z,4.60
2022-11-26T11:57:19.466Z,4.63
2022-11-26T12:00:13.612Z,4.93
2022-11-26T12:02:55.593Z,5.15
2022-11-26T12:06:03.079Z,5.50
2022-11-26T12:09:04.205Z,4.20
2022-11-26T12:11:55.848Z,5.00
2022-11-26T12:14:38.633Z,5.45
2022-11-26T12:17:16.438Z,4.75
2022-11-26T12:19:49.349Z,4.95
2022-11-26T12:22:24.636Z,4.75
2022-11-26T12:25:01.730Z,4.95
2022-11-26T12:28:01.790Z,4.75
2022-11-26T12:30:40.739Z,5.13
2022-11-26T12:33:17.075Z,4.82
2022-11-26T12:35:53.899Z,4.90
2022-11-26T12:38:37.036Z,4.30
2022-11-26T12:41:10.971Z,5.05
2022-11-26T12:43:52.919Z,4.05
2022-11-26T12:46:28.770Z,4.00
2022-11-26T12:49:22.883Z,4.20
2022-11-26T12:51:56.561Z,4.05
2022-11-26T12:54:38.654Z,4.03
2022-11-26T12:57:26.924Z,3.15
2022-11-26T12:59:56.650Z,3.00
2022-11-26T13:02:39.533Z,3.80
2022-11-26T13:05:07.133Z,3.45
2022-11-26T13:08:19.264Z,4.20
2022-11-26T13:11:10.057Z,4.38
2022-11-26T13:13:55.529Z,4.22
2022-11-26T13:16:38.036Z,4.50
2022-11-26T13:19:27.517Z,3.63
2022-11-26T13:22:18.796Z,3.45
2022-11-26T13:25:19.189Z,4.10
2022-11-26T13:27:58.216Z,3.63
2022-11-26T13:30:48.626Z,3.70
2022-11-26T13:33:41.919Z,4.18
2022-11-26T13:36:46.804Z,4.40
2022-11-26T13:39:38.576Z,4.35
2022-11-26T13:42:26.999Z,4.10
2022-11-26T13:44:56.564Z,3.92
2022-11-26T13:47:42.136Z,4.15
2022-11-26T13:50:23.288Z,4.38
2022-11-26T13:52:56.525Z,3.70
2022-11-26T13:55:52.731Z,4.10
2022-11-26T13:58:29.200Z,4.00
2022-11-26T14:00:56.418Z,3.90
2022-11-26T14:03:44.233Z,3.80
2022-11-26T14:06:11.804Z,4.25
2022-11-26T14:08:43.317Z,3.72
2022-11-26T14:11:11.650Z,3.83
2022-11-26T14:13:38.920Z,3.85
2022-11-26T14:16:07.942Z,4.25
2022-11-26T14:18:52.896Z,3.72
2022-11-26T14:21:21.108Z,4.20
2022-11-26T14:23:51.748Z,3.75
2022-11-26T14:26:25.643Z,3.90
2022-11-26T14:29:14.252Z,4.85
2022-11-26T14:31:51.748Z,3.95
2022-11-26T14:34:38.916Z,4.20
2022-11-26T14:37:14.544Z,4.18
2022-11-26T14:39:41.451Z,4.95
2022-11-26T14:42:15.575Z,4.30
2022-11-26T14:44:42.836Z,4.43
2022-11-26T14:47:20.962Z,3.95
2022-11-26T14:49:54.465Z,4.50
2022-11-26T14:52:29.096Z,4.43
2022-11-26T14:55:01.179Z,3.83
2022-11-26T14:57:49.487Z,3.80
2022-11-26T15:00:16.445Z,4.03
2022-11-26T15:02:48.459Z,4.57
2022-11-26T15:05:17.303Z,4.32
2022-11-26T15:07:45.268Z,4.38
2022-11-26T15:10:15.271Z,4.65
2022-11-26T15:12:47.611Z,4.95
2022-11-26T15:15:18.407Z,6.90
2022-11-26T15:17:52.550Z,7.20
2022-11-26T15:20:20.542Z,5.63
2022-11-26T15:23:00.205Z,5.80
2022-11-26T15:25:29.199Z,5.18
2022-11-26T15:28:01.492Z,6.50
2022-11-26T15:30:30.029Z,6.60
2022-11-26T15:33:08.840Z,8.35
2022-11-26T15:35:36.595Z,9.88
2022-11-26T15:38:13.628Z,10.27
2022-11-26T15:40:54.077Z,10.55
2022-11-26T15:43:30.230Z,10.65
2022-11-26T15:46:21.596Z,10.55
2022-11-26T15:49:01.218Z,8.13
2022-11-26T15:51:35.858Z,6.72
2022-11-26T15:54:20.411Z,7.05
2022-11-26T15:56:52.747Z,6.93
2022-11-26T15:59:20.844Z,9.38
2022-11-26T16:01:48.197Z,7.22
2022-11-26T16:04:33.211Z,7.72
2022-11-26T16:07:20.002Z,9.15
2022-11-26T16:09:48.449Z,8.00
2022-11-26T16:13:04.735Z,7.53
2022-11-26T16:15:31.932Z,8.23
2022-11-26T16:17:59.006Z,8.45
2022-11-26T16:20:28.355Z,9.02
2022-11-26T16:22:58.770Z,8.85
2022-11-26T16:25:31.769Z,10.25
2022-11-26T16:28:14.813Z,13.98
2022-11-26T16:30:44.256Z,13.27
2022-11-26T16:33:11.390Z,11.43
2022-11-26T16:35:47.096Z,8.77
2022-11-26T16:38:26.000Z,10.10
2022-11-26T16:40:53.101Z,11.73
2022-11-26T16:43:20.543Z,16.73
2022-11-26T16:45:49.652Z,16.27
2022-11-26T16:48:26.678Z,17.98
2022-11-26T16:50:57.035Z,17.35
2022-11-26T16:53:23.963Z,16.67
2022-11-26T16:55:53.671Z,15.63
2022-11-26T16:58:29.301Z,14.20
2022-11-26T17:00:57.236Z,15.32
2022-11-26T17:03:27.498Z,13.95
2022-11-26T17:05:58.558Z,12.70
2022-11-26T17:08:25.553Z,13.38
2022-11-26T17:10:52.510Z,14.18
2022-11-26T17:13:20.732Z,13.45
2022-11-26T17:15:49.410Z,13.23
2022-11-26T17:18:25.967Z,11.93
2022-11-26T17:20:54.022Z,11.38
2022-11-26T17:23:21.390Z,10.45
2022-11-26T17:25:54.341Z,10.32
2022-11-26T17:28:23.341Z,11.30
2022-11-26T17:30:51.063Z,12.77
2022-11-26T17:33:19.159Z,8.85
2022-11-26T17:35:46.832Z,9.32
2022-11-26T17:38:20.055Z,7.75
2022-11-26T17:40:48.056Z,7.22
2022-11-26T17:43:15.155Z,6.65
2022-11-26T17:45:42.220Z,6.72
2022-11-26T17:48:14.242Z,7.22
2022-11-26T17:50:41.549Z,8.05
2022-11-26T17:53:08.591Z,7.95
2022-11-26T17:55:35.845Z,8.25
2022-11-26T17:58:02.749Z,9.63
2022-11-26T18:00:30.290Z,9.23
2022-11-26T18:02:57.442Z,10.75
2022-11-26T18:05:24.676Z,11.48
2022-11-26T18:07:51.988Z,10.93
2022-11-26T18:10:20.734Z,11.65
2022-11-26T18:12:48.192Z,11.57
2022-11-26T18:15:20.668Z,11.20
2022-11-26T18:17:51.139Z,12.65
2022-11-26T18:20:21.537Z,12.20
2022-11-26T18:22:59.769Z,13.68
2022-11-26T18:25:27.969Z,12.77
2022-11-26T18:27:55.078Z,13.20
2022-11-26T18:30:22.607Z,12.43
2022-11-26T18:32:49.659Z,12.80
2022-11-26T18:35:17.301Z,12.13
2022-11-26T18:37:44.729Z,12.10
2022-11-26T18:40:15.163Z,13.63
2022-11-26T18:42:42.071Z,12.30
2022-11-26T18:45:11.851Z,11.73
2022-11-26T18:47:39.200Z,12.68
2022-11-26T18:50:07.850Z,12.40
2022-11-26T18:52:35.140Z,12.80
2022-11-26T18:55:04.906Z,12.82
2022-11-26T18:57:32.440Z,12.75
2022-11-26T18:59:59.327Z,11.52
2022-11-26T19:02:26.346Z,13.00
2022-11-26T19:04:53.439Z,12.82
2022-11-26T19:07:20.372Z,11.10
2022-11-26T19:09:48.582Z,12.10
2022-11-26T19:12:15.492Z,13.02
2022-11-26T19:14:42.424Z,12.90
2022-11-26T19:17:09.547Z,13.35
2022-11-26T19:19:38.452Z,12.65
2022-11-26T19:22:05.565Z,12.35
2022-11-26T19:24:32.458Z,11.93
2022-11-26T19:26:59.485Z,12.07
2022-11-26T19:29:26.328Z,12.80
2022-11-26T19:31:53.615Z,11.68
2022-11-26T19:34:20.648Z,12.80
2022-11-26T19:36:48.647Z,13.32
2022-11-26T19:39:16.892Z,12.50
2022-11-26T19:41:44.314Z,12.20
2022-11-26T19:44:11.658Z,11.90
2022-11-26T19:46:41.484Z,12.25
2022-11-26T19:49:12.571Z,11.77
2022-11-26T19:51:40.508Z,11.68
2022-11-26T19:54:07.536Z,12.50
2022-11-26T19:56:35.400Z,12.30
2022-11-26T19:59:02.529Z,12.13
2022-11-26T20:01:31.852Z,12.70
2022-11-26T20:04:01.274Z,12.15
2022-11-26T20:06:29.809Z,11.60
2022-11-26T20:08:58.443Z,11.82
2022-11-26T20:11:26.754Z,12.32
2022-11-26T20:13:54.542Z,12.60
2022-11-26T20:16:25.183Z,12.23
2022-11-26T20:18:52.266Z,13.80
2022-11-26T20:21:22.215Z,12.90
2022-11-26T20:23:50.358Z,13.65
2022-11-26T20:26:23.177Z,13.43
2022-11-26T20:28:50.253Z,13.50
2022-11-26T20:31:23.060Z,13.45
2022-11-26T20:33:54.124Z,13.20
2022-11-26T20:36:23.191Z,13.40
2022-11-26T20:38:54.989Z,13.52
2022-11-26T20:41:23.324Z,12.73
2022-11-26T20:43:56.528Z,14.20
2022-11-26T20:46:26.194Z,14.25
2022-11-26T20:48:53.202Z,13.98
2022-11-26T20:51:22.151Z,12.25
2022-11-26T20:53:50.794Z,12.75
2022-11-26T20:56:22.429Z,12.70
2022-11-26T20:58:51.049Z,14.40
2022-11-26T21:01:23.891Z,13.40
2022-11-26T21:03:52.266Z,13.10
2022-11-26T21:06:25.942Z,13.48
2022-11-26T21:09:01.127Z,13.68
2022-11-26T21:11:29.240Z,12.73
2022-11-26T21:13:58.600Z,12.52
2022-11-26T21:16:26.289Z,14.18
2022-11-26T21:18:56.845Z,14.50
2022-11-26T21:21:25.452Z,13.85
2022-11-26T21:23:53.226Z,14.63
2022-11-26T21:26:22.982Z,13.02
2022-11-26T21:28:55.409Z,11.98
2022-11-26T21:31:23.337Z,12.60
2022-11-26T21:33:58.022Z,12.10
2022-11-26T21:36:25.460Z,12.98
2022-11-26T21:38:52.600Z,12.10
2022-11-26T21:41:20.246Z,11.80
2022-11-26T21:43:48.236Z,11.90
2022-11-26T21:46:21.171Z,11.75
2022-11-26T21:48:48.419Z,11.88
2022-11-26T21:51:19.638Z,11.90
2022-11-26T21:53:48.314Z,11.13
2022-11-26T21:56:17.886Z,11.65
2022-11-26T21:58:45.124Z,12.25
2022-11-26T22:01:16.976Z,12.23
2022-11-26T22:03:46.168Z,11.65
2022-11-26T22:06:14.070Z,11.80
2022-11-26T22:08:41.556Z,12.48
2022-11-26T22:11:14.040Z,10.48
2022-11-26T22:13:41.452Z,10.20
2022-11-26T22:16:10.528Z,11.02
2022-11-26T22:18:42.132Z,11.02
2022-11-26T22:21:21.371Z,10.93
2022-11-26T22:23:49.004Z,10.98
2022-11-26T22:26:15.847Z,11.20
2022-11-26T22:28:42.981Z,10.43
2022-11-26T22:31:12.161Z,10.40
2022-11-26T22:33:39.737Z,11.05
2022-11-26T22:36:06.830Z,10.93
2022-11-26T22:38:34.191Z,10.77
2022-11-26T22:41:03.145Z,11.80
2022-11-26T22:43:31.200Z,10.30
2022-11-26T22:45:58.883Z,11.50
2022-11-26T22:48:25.937Z,10.88
2022-11-26T22:50:54.526Z,11.80
2022-11-26T22:53:22.639Z,11.32
2022-11-26T22:55:57.301Z,11.32
2022-11-26T22:58:25.697Z,11.88
2022-11-26T23:00:59.201Z,12.45
2022-11-26T23:03:27.864Z,10.98
2022-11-26T23:05:55.461Z,11.50
2022-11-26T23:08:22.981Z,11.32
2022-11-26T23:10:50.041Z,11.52
2022-11-26T23:13:17.641Z,11.90
2022-11-26T23:15:45.994Z,10.43
2022-11-26T23:18:15.254Z,11.13
2022-11-26T23:20:43.020Z,11.45
2022-11-26T23:23:10.606Z,11.88
2022-11-26T23:25:39.307Z,11.90
2022-11-26T23:28:06.864Z,10.80
2022-11-26T23:30:35.098Z,10.88
2022-11-26T23:33:02.023Z,12.77
2022-11-26T23:35:29.198Z,11.40
2022-11-26T23:37:56.252Z,12.07
2022-11-26T23:40:23.217Z,12.15
2022-11-26T23:42:50.125Z,12.00
2022-11-26T23:45:17.184Z,11.35
2022-11-26T23:47:44.106Z,12.35
2022-11-26T23:50:12.494Z,11.68
2022-11-26T23:52:39.375Z,12.52
2022-11-26T23:55:06.718Z,12.80
2022-11-26T23:57:33.612Z,11.80
